sensor_id;sensor_type;location;lat;lon;timestamp;temperature;humidity
73576;DHT22;61859;49.204;8.140;2022-08-06T00:02:24;20.20;62.80
73576;DHT22;61859;49.204;8.140;2022-08-06T00:04:50;20.20;63.00
73576;DHT22;61859;49.204;8.140;2022-08-06T00:07:16;20.20;63.20
73576;DHT22;61859;49.204;8.140;2022-08-06T00:09:42;20.10;62.90
73576;DHT22;61859;49.204;8.140;2022-08-06T00:12:08;20.10;63.00
73576;DHT22;61859;49.204;8.140;2022-08-06T00:14:34;20.10;62.90
73576;DHT22;61859;49.204;8.140;2022-08-06T00:17:00;20.00;63.10
73576;DHT22;61859;49.204;8.140;2022-08-06T00:19:26;20.00;63.10
73576;DHT22;61859;49.204;8.140;2022-08-06T00:21:53;20.00;63.20
73576;DHT22;61859;49.204;8.140;2022-08-06T00:24:19;20.00;63.10
73576;DHT22;61859;49.204;8.140;2022-08-06T00:26:45;19.90;63.40
73576;DHT22;61859;49.204;8.140;2022-08-06T00:29:12;19.90;63.00
73576;DHT22;61859;49.204;8.140;2022-08-06T00:31:37;19.80;63.50
73576;DHT22;61859;49.204;8.140;2022-08-06T00:34:03;19.80;63.40
73576;DHT22;61859;49.204;8.140;2022-08-06T00:36:31;19.80;63.20
73576;DHT22;61859;49.204;8.140;2022-08-06T00:39:04;19.80;63.40
73576;DHT22;61859;49.204;8.140;2022-08-06T00:41:31;19.70;63.10
73576;DHT22;61859;49.204;8.140;2022-08-06T00:43:58;19.70;63.80
73576;DHT22;61859;49.204;8.140;2022-08-06T00:46:24;19.70;63.60
73576;DHT22;61859;49.204;8.140;2022-08-06T00:48:50;19.60;63.40
73576;DHT22;61859;49.204;8.140;2022-08-06T00:51:16;19.60;63.40
73576;DHT22;61859;49.204;8.140;2022-08-06T00:53:41;19.50;64.20
73576;DHT22;61859;49.204;8.140;2022-08-06T00:56:07;19.50;63.80
73576;DHT22;61859;49.204;8.140;2022-08-06T00:58:32;19.40;63.80
73576;DHT22;61859;49.204;8.140;2022-08-06T01:00:58;19.50;63.90
73576;DHT22;61859;49.204;8.140;2022-08-06T01:03:24;19.40;64.20
73576;DHT22;61859;49.204;8.140;2022-08-06T01:05:49;19.40;64.10
73576;DHT22;61859;49.204;8.140;2022-08-06T01:08:15;19.40;64.30
73576;DHT22;61859;49.204;8.140;2022-08-06T01:10:40;19.40;64.30
73576;DHT22;61859;49.204;8.140;2022-08-06T01:13:06;19.20;64.50
73576;DHT22;61859;49.204;8.140;2022-08-06T01:15:33;19.20;64.00
73576;DHT22;61859;49.204;8.140;2022-08-06T01:18:10;19.10;65.00
73576;DHT22;61859;49.204;8.140;2022-08-06T01:21:03;19.10;64.40
73576;DHT22;61859;49.204;8.140;2022-08-06T01:26:39;19.10;64.50
73576;DHT22;61859;49.204;8.140;2022-08-06T01:29:33;19.00;65.30
73576;DHT22;61859;49.204;8.140;2022-08-06T01:32:08;19.00;64.70
73576;DHT22;61859;49.204;8.140;2022-08-06T01:34:38;18.90;64.50
73576;DHT22;61859;49.204;8.140;2022-08-06T01:37:34;18.90;65.00
73576;DHT22;61859;49.204;8.140;2022-08-06T01:40:04;18.90;64.90
73576;DHT22;61859;49.204;8.140;2022-08-06T01:42:32;18.90;65.10
73576;DHT22;61859;49.204;8.140;2022-08-06T01:44:59;18.80;65.50
73576;DHT22;61859;49.204;8.140;2022-08-06T01:47:30;18.80;64.80
73576;DHT22;61859;49.204;8.140;2022-08-06T01:49:59;18.80;65.20
73576;DHT22;61859;49.204;8.140;2022-08-06T01:52:27;18.80;64.80
73576;DHT22;61859;49.204;8.140;2022-08-06T01:54:54;18.70;64.50
73576;DHT22;61859;49.204;8.140;2022-08-06T01:57:23;18.80;64.80
73576;DHT22;61859;49.204;8.140;2022-08-06T01:59:52;18.80;65.10
73576;DHT22;61859;49.204;8.140;2022-08-06T02:02:21;18.90;64.50
73576;DHT22;61859;49.204;8.140;2022-08-06T02:04:50;18.70;64.70
73576;DHT22;61859;49.204;8.140;2022-08-06T02:07:20;18.70;64.20
73576;DHT22;61859;49.204;8.140;2022-08-06T02:09:47;18.70;64.80
73576;DHT22;61859;49.204;8.140;2022-08-06T02:12:19;18.70;64.70
73576;DHT22;61859;49.204;8.140;2022-08-06T02:14:47;18.70;65.30
73576;DHT22;61859;49.204;8.140;2022-08-06T02:17:15;18.70;65.50
73576;DHT22;61859;49.204;8.140;2022-08-06T02:19:48;18.60;65.10
73576;DHT22;61859;49.204;8.140;2022-08-06T02:22:15;18.60;65.60
73576;DHT22;61859;49.204;8.140;2022-08-06T02:24:42;18.60;66.00
73576;DHT22;61859;49.204;8.140;2022-08-06T02:27:09;18.50;66.30
73576;DHT22;61859;49.204;8.140;2022-08-06T02:29:37;18.50;66.00
73576;DHT22;61859;49.204;8.140;2022-08-06T02:32:05;18.50;65.90
73576;DHT22;61859;49.204;8.140;2022-08-06T02:34:30;18.40;66.00
73576;DHT22;61859;49.204;8.140;2022-08-06T02:37:10;18.50;66.10
73576;DHT22;61859;49.204;8.140;2022-08-06T02:39:46;18.50;66.40
73576;DHT22;61859;49.204;8.140;2022-08-06T02:42:29;18.40;66.20
73576;DHT22;61859;49.204;8.140;2022-08-06T02:45:05;18.50;66.70
73576;DHT22;61859;49.204;8.140;2022-08-06T02:47:45;18.40;66.10
73576;DHT22;61859;49.204;8.140;2022-08-06T02:50:13;18.40;66.30
73576;DHT22;61859;49.204;8.140;2022-08-06T02:52:43;18.40;66.30
73576;DHT22;61859;49.204;8.140;2022-08-06T02:55:16;18.40;66.50
73576;DHT22;61859;49.204;8.140;2022-08-06T02:57:53;18.40;66.20
73576;DHT22;61859;49.204;8.140;2022-08-06T03:00:20;18.30;66.20
73576;DHT22;61859;49.204;8.140;2022-08-06T03:02:48;18.30;65.40
73576;DHT22;61859;49.204;8.140;2022-08-06T03:05:19;18.30;65.60
73576;DHT22;61859;49.204;8.140;2022-08-06T03:07:47;18.20;65.50
73576;DHT22;61859;49.204;8.140;2022-08-06T03:10:14;18.20;64.90
73576;DHT22;61859;49.204;8.140;2022-08-06T03:12:43;18.10;64.90
73576;DHT22;61859;49.204;8.140;2022-08-06T03:15:10;18.10;65.50
73576;DHT22;61859;49.204;8.140;2022-08-06T03:17:37;18.20;64.60
73576;DHT22;61859;49.204;8.140;2022-08-06T03:20:04;18.10;64.60
73576;DHT22;61859;49.204;8.140;2022-08-06T03:22:31;18.00;64.40
73576;DHT22;61859;49.204;8.140;2022-08-06T03:24:58;18.20;63.40
73576;DHT22;61859;49.204;8.140;2022-08-06T03:27:26;18.10;64.10
73576;DHT22;61859;49.204;8.140;2022-08-06T03:29:52;18.10;63.60
73576;DHT22;61859;49.204;8.140;2022-08-06T03:32:19;18.00;63.80
73576;DHT22;61859;49.204;8.140;2022-08-06T03:34:46;18.10;63.10
73576;DHT22;61859;49.204;8.140;2022-08-06T03:37:12;18.10;63.30
73576;DHT22;61859;49.204;8.140;2022-08-06T03:39:41;18.00;62.80
73576;DHT22;61859;49.204;8.140;2022-08-06T03:42:07;18.10;63.00
73576;DHT22;61859;49.204;8.140;2022-08-06T03:44:33;18.00;63.20
73576;DHT22;61859;49.204;8.140;2022-08-06T03:47:05;18.00;63.50
73576;DHT22;61859;49.204;8.140;2022-08-06T03:49:36;17.90;63.10
73576;DHT22;61859;49.204;8.140;2022-08-06T03:52:05;17.90;63.70
73576;DHT22;61859;49.204;8.140;2022-08-06T03:54:36;17.90;63.00
73576;DHT22;61859;49.204;8.140;2022-08-06T03:57:08;17.90;62.90
73576;DHT22;61859;49.204;8.140;2022-08-06T03:59:37;17.80;62.20
73576;DHT22;61859;49.204;8.140;2022-08-06T04:02:04;17.80;61.70
73576;DHT22;61859;49.204;8.140;2022-08-06T04:04:31;17.70;61.20
73576;DHT22;61859;49.204;8.140;2022-08-06T04:06:58;17.70;61.00
73576;DHT22;61859;49.204;8.140;2022-08-06T04:09:26;17.70;60.50
73576;DHT22;61859;49.204;8.140;2022-08-06T04:11:53;17.60;60.30
73576;DHT22;61859;49.204;8.140;2022-08-06T04:14:20;17.60;61.20
73576;DHT22;61859;49.204;8.140;2022-08-06T04:16:47;17.60;60.90
73576;DHT22;61859;49.204;8.140;2022-08-06T04:19:14;17.60;60.60
73576;DHT22;61859;49.204;8.140;2022-08-06T04:21:44;17.60;60.80
73576;DHT22;61859;49.204;8.140;2022-08-06T04:24:10;17.60;60.00
73576;DHT22;61859;49.204;8.140;2022-08-06T04:26:37;17.60;60.40
73576;DHT22;61859;49.204;8.140;2022-08-06T04:29:05;17.50;61.50
73576;DHT22;61859;49.204;8.140;2022-08-06T04:31:33;17.60;61.10
73576;DHT22;61859;49.204;8.140;2022-08-06T04:33:59;17.50;60.20
73576;DHT22;61859;49.204;8.140;2022-08-06T04:36:27;17.50;60.80
73576;DHT22;61859;49.204;8.140;2022-08-06T04:38:53;17.60;61.10
73576;DHT22;61859;49.204;8.140;2022-08-06T04:41:19;17.50;60.60
73576;DHT22;61859;49.204;8.140;2022-08-06T04:43:46;17.60;61.50
73576;DHT22;61859;49.204;8.140;2022-08-06T04:46:12;17.60;60.80
73576;DHT22;61859;49.204;8.140;2022-08-06T04:48:38;17.50;60.50
73576;DHT22;61859;49.204;8.140;2022-08-06T04:51:04;17.60;61.30
73576;DHT22;61859;49.204;8.140;2022-08-06T04:53:38;17.60;61.30
73576;DHT22;61859;49.204;8.140;2022-08-06T04:56:04;17.50;61.10
73576;DHT22;61859;49.204;8.140;2022-08-06T04:58:30;17.60;61.30
73576;DHT22;61859;49.204;8.140;2022-08-06T05:00:56;17.50;61.10
73576;DHT22;61859;49.204;8.140;2022-08-06T05:03:21;17.50;60.80
73576;DHT22;61859;49.204;8.140;2022-08-06T05:05:59;17.50;61.10
73576;DHT22;61859;49.204;8.140;2022-08-06T05:08:27;17.50;60.80
73576;DHT22;61859;49.204;8.140;2022-08-06T05:11:00;17.50;60.60
73576;DHT22;61859;49.204;8.140;2022-08-06T05:13:30;17.60;61.40
73576;DHT22;61859;49.204;8.140;2022-08-06T05:16:01;17.50;61.30
73576;DHT22;61859;49.204;8.140;2022-08-06T05:18:37;17.50;61.00
73576;DHT22;61859;49.204;8.140;2022-08-06T05:21:05;17.50;61.00
73576;DHT22;61859;49.204;8.140;2022-08-06T05:23:40;17.40;60.50
73576;DHT22;61859;49.204;8.140;2022-08-06T05:26:07;17.40;60.50
73576;DHT22;61859;49.204;8.140;2022-08-06T05:28:33;17.60;60.30
73576;DHT22;61859;49.204;8.140;2022-08-06T05:30:59;17.60;60.30
73576;DHT22;61859;49.204;8.140;2022-08-06T05:33:30;17.60;60.30
73576;DHT22;61859;49.204;8.140;2022-08-06T05:35:57;17.60;60.80
73576;DHT22;61859;49.204;8.140;2022-08-06T05:38:23;17.70;60.30
73576;DHT22;61859;49.204;8.140;2022-08-06T05:40:49;17.80;60.20
73576;DHT22;61859;49.204;8.140;2022-08-06T05:43:15;17.80;60.10
73576;DHT22;61859;49.204;8.140;2022-08-06T05:45:41;17.80;60.20
73576;DHT22;61859;49.204;8.140;2022-08-06T05:48:10;18.00;59.60
73576;DHT22;61859;49.204;8.140;2022-08-06T05:50:41;17.90;59.70
73576;DHT22;61859;49.204;8.140;2022-08-06T05:53:17;18.00;59.70
73576;DHT22;61859;49.204;8.140;2022-08-06T05:58:29;18.10;60.30
73576;DHT22;61859;49.204;8.140;2022-08-06T06:00:58;18.10;59.40
73576;DHT22;61859;49.204;8.140;2022-08-06T06:03:25;18.20;59.10
73576;DHT22;61859;49.204;8.140;2022-08-06T06:05:53;18.30;59.20
73576;DHT22;61859;49.204;8.140;2022-08-06T06:08:19;18.40;59.40
73576;DHT22;61859;49.204;8.140;2022-08-06T06:10:45;18.30;58.40
73576;DHT22;61859;49.204;8.140;2022-08-06T06:13:11;18.30;58.50
73576;DHT22;61859;49.204;8.140;2022-08-06T06:15:44;18.30;58.70
73576;DHT22;61859;49.204;8.140;2022-08-06T06:18:37;18.40;58.70
73576;DHT22;61859;49.204;8.140;2022-08-06T06:21:35;18.40;59.00
73576;DHT22;61859;49.204;8.140;2022-08-06T06:26:48;18.50;58.80
73576;DHT22;61859;49.204;8.140;2022-08-06T06:29:33;18.60;58.40
73576;DHT22;61859;49.204;8.140;2022-08-06T06:32:21;18.70;59.60
73576;DHT22;61859;49.204;8.140;2022-08-06T06:34:57;18.80;58.70
73576;DHT22;61859;49.204;8.140;2022-08-06T06:40:13;18.90;58.50
73576;DHT22;61859;49.204;8.140;2022-08-06T06:42:57;19.00;58.80
73576;DHT22;61859;49.204;8.140;2022-08-06T06:48:37;19.20;58.30
73576;DHT22;61859;49.204;8.140;2022-08-06T06:51:09;19.30;58.00
73576;DHT22;61859;49.204;8.140;2022-08-06T06:53:39;19.40;57.70
73576;DHT22;61859;49.204;8.140;2022-08-06T06:56:07;19.40;57.20
73576;DHT22;61859;49.204;8.140;2022-08-06T06:58:37;19.60;58.50
73576;DHT22;61859;49.204;8.140;2022-08-06T07:01:05;19.80;57.90
73576;DHT22;61859;49.204;8.140;2022-08-06T07:03:33;19.90;56.90
73576;DHT22;61859;49.204;8.140;2022-08-06T07:06:00;20.10;56.00
73576;DHT22;61859;49.204;8.140;2022-08-06T07:08:28;20.20;55.60
73576;DHT22;61859;49.204;8.140;2022-08-06T07:10:55;20.30;55.30
73576;DHT22;61859;49.204;8.140;2022-08-06T07:13:23;20.40;55.20
73576;DHT22;61859;49.204;8.140;2022-08-06T07:15:50;20.50;55.10
73576;DHT22;61859;49.204;8.140;2022-08-06T07:18:17;20.70;55.00
73576;DHT22;61859;49.204;8.140;2022-08-06T07:20:43;20.90;53.50
73576;DHT22;61859;49.204;8.140;2022-08-06T07:23:09;21.20;53.60
73576;DHT22;61859;49.204;8.140;2022-08-06T07:25:42;21.40;52.80
73576;DHT22;61859;49.204;8.140;2022-08-06T07:28:10;21.70;52.60
73576;DHT22;61859;49.204;8.140;2022-08-06T07:30:36;21.80;51.30
73576;DHT22;61859;49.204;8.140;2022-08-06T07:33:03;22.00;51.50
73576;DHT22;61859;49.204;8.140;2022-08-06T07:35:29;22.00;51.10
73576;DHT22;61859;49.204;8.140;2022-08-06T07:37:59;22.00;51.30
73576;DHT22;61859;49.204;8.140;2022-08-06T07:40:32;22.10;50.90
73576;DHT22;61859;49.204;8.140;2022-08-06T07:43:08;22.20;50.90
73576;DHT22;61859;49.204;8.140;2022-08-06T07:45:35;22.40;49.30
73576;DHT22;61859;49.204;8.140;2022-08-06T07:48:07;22.40;49.60
73576;DHT22;61859;49.204;8.140;2022-08-06T07:50:35;22.50;50.10
73576;DHT22;61859;49.204;8.140;2022-08-06T07:53:01;22.60;49.30
73576;DHT22;61859;49.204;8.140;2022-08-06T07:55:28;22.70;49.50
73576;DHT22;61859;49.204;8.140;2022-08-06T07:57:55;22.90;48.80
73576;DHT22;61859;49.204;8.140;2022-08-06T08:00:22;23.10;48.20
73576;DHT22;61859;49.204;8.140;2022-08-06T08:02:50;23.20;48.20
73576;DHT22;61859;49.204;8.140;2022-08-06T08:05:36;23.30;48.20
73576;DHT22;61859;49.204;8.140;2022-08-06T08:08:20;23.50;46.20
73576;DHT22;61859;49.204;8.140;2022-08-06T08:10:46;23.60;45.90
73576;DHT22;61859;49.204;8.140;2022-08-06T08:13:13;23.70;45.60
73576;DHT22;61859;49.204;8.140;2022-08-06T08:15:39;23.70;47.00
73576;DHT22;61859;49.204;8.140;2022-08-06T08:18:05;23.90;45.40
73576;DHT22;61859;49.204;8.140;2022-08-06T08:20:31;24.20;45.20
73576;DHT22;61859;49.204;8.140;2022-08-06T08:22:58;24.30;44.50
73576;DHT22;61859;49.204;8.140;2022-08-06T08:25:24;24.50;43.60
73576;DHT22;61859;49.204;8.140;2022-08-06T08:27:49;24.70;42.40
73576;DHT22;61859;49.204;8.140;2022-08-06T08:30:17;24.60;42.50
73576;DHT22;61859;49.204;8.140;2022-08-06T08:32:42;24.70;42.60
73576;DHT22;61859;49.204;8.140;2022-08-06T08:35:08;24.70;42.00
73576;DHT22;61859;49.204;8.140;2022-08-06T08:37:34;24.70;42.70
73576;DHT22;61859;49.204;8.140;2022-08-06T08:39:59;24.90;42.20
73576;DHT22;61859;49.204;8.140;2022-08-06T08:42:33;24.90;42.00
73576;DHT22;61859;49.204;8.140;2022-08-06T08:45:01;25.30;40.80
73576;DHT22;61859;49.204;8.140;2022-08-06T08:47:29;25.40;40.60
73576;DHT22;61859;49.204;8.140;2022-08-06T08:49:58;25.50;40.30
73576;DHT22;61859;49.204;8.140;2022-08-06T08:52:31;25.50;39.30
73576;DHT22;61859;49.204;8.140;2022-08-06T08:55:00;25.40;39.80
73576;DHT22;61859;49.204;8.140;2022-08-06T08:57:26;25.30;40.30
73576;DHT22;61859;49.204;8.140;2022-08-06T08:59:53;25.20;40.40
73576;DHT22;61859;49.204;8.140;2022-08-06T09:02:19;25.40;40.00
73576;DHT22;61859;49.204;8.140;2022-08-06T09:04:45;25.40;40.00
73576;DHT22;61859;49.204;8.140;2022-08-06T09:07:11;25.50;40.60
73576;DHT22;61859;49.204;8.140;2022-08-06T09:09:38;25.60;40.70
73576;DHT22;61859;49.204;8.140;2022-08-06T09:12:04;25.70;39.90
73576;DHT22;61859;49.204;8.140;2022-08-06T09:14:30;25.90;39.60
73576;DHT22;61859;49.204;8.140;2022-08-06T09:16:58;25.90;39.10
73576;DHT22;61859;49.204;8.140;2022-08-06T09:19:25;25.90;38.90
73576;DHT22;61859;49.204;8.140;2022-08-06T09:21:57;25.80;39.20
73576;DHT22;61859;49.204;8.140;2022-08-06T09:24:24;26.00;39.60
73576;DHT22;61859;49.204;8.140;2022-08-06T09:29:53;26.30;40.50
73576;DHT22;61859;49.204;8.140;2022-08-06T09:32:44;26.50;39.00
73576;DHT22;61859;49.204;8.140;2022-08-06T09:35:20;26.50;38.00
73576;DHT22;61859;49.204;8.140;2022-08-06T09:37:47;26.60;38.80
73576;DHT22;61859;49.204;8.140;2022-08-06T09:40:15;26.50;40.30
73576;DHT22;61859;49.204;8.140;2022-08-06T09:42:43;26.50;40.80
73576;DHT22;61859;49.204;8.140;2022-08-06T09:45:13;26.60;39.90
73576;DHT22;61859;49.204;8.140;2022-08-06T09:47:40;26.80;37.70
73576;DHT22;61859;49.204;8.140;2022-08-06T09:50:06;26.90;38.10
73576;DHT22;61859;49.204;8.140;2022-08-06T09:52:32;27.10;37.40
73576;DHT22;61859;49.204;8.140;2022-08-06T09:54:58;27.20;39.00
73576;DHT22;61859;49.204;8.140;2022-08-06T09:57:25;27.30;37.20
73576;DHT22;61859;49.204;8.140;2022-08-06T09:59:50;27.30;38.20
73576;DHT22;61859;49.204;8.140;2022-08-06T10:02:18;27.30;38.50
73576;DHT22;61859;49.204;8.140;2022-08-06T10:04:45;27.60;38.30
73576;DHT22;61859;49.204;8.140;2022-08-06T10:07:11;27.70;36.60
73576;DHT22;61859;49.204;8.140;2022-08-06T10:09:50;27.70;36.60
73576;DHT22;61859;49.204;8.140;2022-08-06T10:12:18;27.60;36.70
73576;DHT22;61859;49.204;8.140;2022-08-06T10:14:44;27.50;37.00
73576;DHT22;61859;49.204;8.140;2022-08-06T10:17:19;27.40;36.10
73576;DHT22;61859;49.204;8.140;2022-08-06T10:19:47;27.30;36.90
73576;DHT22;61859;49.204;8.140;2022-08-06T10:22:17;27.30;36.40
73576;DHT22;61859;49.204;8.140;2022-08-06T10:24:50;27.50;37.20
73576;DHT22;61859;49.204;8.140;2022-08-06T10:27:31;27.70;37.40
73576;DHT22;61859;49.204;8.140;2022-08-06T10:30:04;27.70;37.30
73576;DHT22;61859;49.204;8.140;2022-08-06T10:35:07;28.20;36.00
73576;DHT22;61859;49.204;8.140;2022-08-06T10:37:38;28.30;36.00
73576;DHT22;61859;49.204;8.140;2022-08-06T10:40:09;28.60;35.60
73576;DHT22;61859;49.204;8.140;2022-08-06T10:42:37;28.70;34.80
73576;DHT22;61859;49.204;8.140;2022-08-06T10:45:05;28.70;35.00
73576;DHT22;61859;49.204;8.140;2022-08-06T10:47:32;28.60;34.90
73576;DHT22;61859;49.204;8.140;2022-08-06T10:49:58;28.50;34.80
73576;DHT22;61859;49.204;8.140;2022-08-06T10:52:25;28.70;35.00
73576;DHT22;61859;49.204;8.140;2022-08-06T10:54:51;28.90;35.70
73576;DHT22;61859;49.204;8.140;2022-08-06T10:57:18;29.10;35.60
73576;DHT22;61859;49.204;8.140;2022-08-06T10:59:45;29.20;34.80
73576;DHT22;61859;49.204;8.140;2022-08-06T11:02:16;29.30;35.90
73576;DHT22;61859;49.204;8.140;2022-08-06T11:05:00;29.50;34.80
73576;DHT22;61859;49.204;8.140;2022-08-06T11:07:51;29.50;34.30
73576;DHT22;61859;49.204;8.140;2022-08-06T11:10:39;29.60;34.20
73576;DHT22;61859;49.204;8.140;2022-08-06T11:15:48;29.40;34.00
73576;DHT22;61859;49.204;8.140;2022-08-06T11:18:14;29.40;33.90
73576;DHT22;61859;49.204;8.140;2022-08-06T11:20:45;29.50;33.90
73576;DHT22;61859;49.204;8.140;2022-08-06T11:25:46;29.90;33.60
73576;DHT22;61859;49.204;8.140;2022-08-06T11:28:17;30.10;32.70
73576;DHT22;61859;49.204;8.140;2022-08-06T11:30:51;30.50;31.80
73576;DHT22;61859;49.204;8.140;2022-08-06T11:33:19;30.40;32.70
73576;DHT22;61859;49.204;8.140;2022-08-06T11:35:47;30.30;33.00
73576;DHT22;61859;49.204;8.140;2022-08-06T11:41:08;30.30;32.90
73576;DHT22;61859;49.204;8.140;2022-08-06T11:46:29;30.10;33.10
73576;DHT22;61859;49.204;8.140;2022-08-06T11:54:22;30.30;32.30
73576;DHT22;61859;49.204;8.140;2022-08-06T12:02:43;30.00;31.60
73576;DHT22;61859;49.204;8.140;2022-08-06T12:05:02;29.90;32.60
73576;DHT22;61859;49.204;8.140;2022-08-06T12:07:30;29.90;32.80
73576;DHT22;61859;49.204;8.140;2022-08-06T12:14:56;29.90;32.00
73576;DHT22;61859;49.204;8.140;2022-08-06T12:17:24;30.00;31.80
73576;DHT22;61859;49.204;8.140;2022-08-06T12:19:51;30.10;31.50
73576;DHT22;61859;49.204;8.140;2022-08-06T12:22:20;30.10;31.70
73576;DHT22;61859;49.204;8.140;2022-08-06T12:24:49;30.30;31.30
73576;DHT22;61859;49.204;8.140;2022-08-06T12:27:16;30.30;31.60
73576;DHT22;61859;49.204;8.140;2022-08-06T12:29:43;30.50;30.90
73576;DHT22;61859;49.204;8.140;2022-08-06T12:34:54;31.10;30.80
73576;DHT22;61859;49.204;8.140;2022-08-06T12:37:20;31.30;30.70
73576;DHT22;61859;49.204;8.140;2022-08-06T12:39:46;31.60;31.30
73576;DHT22;61859;49.204;8.140;2022-08-06T12:42:31;31.90;30.70
73576;DHT22;61859;49.204;8.140;2022-08-06T12:44:57;32.10;30.30
73576;DHT22;61859;49.204;8.140;2022-08-06T12:47:24;32.10;30.60
73576;DHT22;61859;49.204;8.140;2022-08-06T12:49:53;32.50;29.80
73576;DHT22;61859;49.204;8.140;2022-08-06T12:52:20;32.50;29.50
73576;DHT22;61859;49.204;8.140;2022-08-06T12:54:47;32.10;29.80
73576;DHT22;61859;49.204;8.140;2022-08-06T12:57:24;31.90;30.80
73576;DHT22;61859;49.204;8.140;2022-08-06T12:59:50;31.60;31.10
73576;DHT22;61859;49.204;8.140;2022-08-06T13:02:20;31.70;30.90
73576;DHT22;61859;49.204;8.140;2022-08-06T13:04:49;31.50;29.70
73576;DHT22;61859;49.204;8.140;2022-08-06T13:07:15;31.40;30.50
73576;DHT22;61859;49.204;8.140;2022-08-06T13:09:43;31.40;30.20
73576;DHT22;61859;49.204;8.140;2022-08-06T13:12:16;31.60;30.30
73576;DHT22;61859;49.204;8.140;2022-08-06T13:14:55;31.70;30.60
73576;DHT22;61859;49.204;8.140;2022-08-06T13:17:25;31.80;30.50
73576;DHT22;61859;49.204;8.140;2022-08-06T13:19:56;32.00;29.40
73576;DHT22;61859;49.204;8.140;2022-08-06T13:22:24;32.20;29.40
73576;DHT22;61859;49.204;8.140;2022-08-06T13:25:13;32.30;29.10
73576;DHT22;61859;49.204;8.140;2022-08-06T13:27:41;32.20;28.90
73576;DHT22;61859;49.204;8.140;2022-08-06T13:30:08;32.50;29.70
73576;DHT22;61859;49.204;8.140;2022-08-06T13:32:35;32.80;29.80
73576;DHT22;61859;49.204;8.140;2022-08-06T13:35:07;33.00;28.60
73576;DHT22;61859;49.204;8.140;2022-08-06T13:37:49;33.00;28.40
73576;DHT22;61859;49.204;8.140;2022-08-06T13:40:16;33.00;28.00
73576;DHT22;61859;49.204;8.140;2022-08-06T13:42:53;33.30;29.10
73576;DHT22;61859;49.204;8.140;2022-08-06T13:45:24;33.70;28.10
73576;DHT22;61859;49.204;8.140;2022-08-06T13:47:50;34.20;28.40
73576;DHT22;61859;49.204;8.140;2022-08-06T13:50:20;34.50;28.00
73576;DHT22;61859;49.204;8.140;2022-08-06T13:52:46;34.50;27.10
73576;DHT22;61859;49.204;8.140;2022-08-06T13:55:12;34.80;28.10
73576;DHT22;61859;49.204;8.140;2022-08-06T13:57:38;35.10;28.10
73576;DHT22;61859;49.204;8.140;2022-08-06T14:00:05;35.50;27.30
73576;DHT22;61859;49.204;8.140;2022-08-06T14:02:33;35.80;27.10
73576;DHT22;61859;49.204;8.140;2022-08-06T14:04:59;35.90;27.80
73576;DHT22;61859;49.204;8.140;2022-08-06T14:07:24;35.90;27.40
73576;DHT22;61859;49.204;8.140;2022-08-06T14:09:50;36.30;26.40
73576;DHT22;61859;49.204;8.140;2022-08-06T14:12:15;36.20;26.30
73576;DHT22;61859;49.204;8.140;2022-08-06T14:14:41;36.20;27.40
73576;DHT22;61859;49.204;8.140;2022-08-06T14:17:06;36.20;26.10
73576;DHT22;61859;49.204;8.140;2022-08-06T14:19:32;36.20;26.60
73576;DHT22;61859;49.204;8.140;2022-08-06T14:21:58;36.30;26.60
73576;DHT22;61859;49.204;8.140;2022-08-06T14:24:23;36.40;26.20
73576;DHT22;61859;49.204;8.140;2022-08-06T14:26:49;36.30;26.20
73576;DHT22;61859;49.204;8.140;2022-08-06T14:29:15;36.30;26.20
73576;DHT22;61859;49.204;8.140;2022-08-06T14:31:40;36.30;26.30
73576;DHT22;61859;49.204;8.140;2022-08-06T14:34:06;36.30;26.90
73576;DHT22;61859;49.204;8.140;2022-08-06T14:36:32;36.40;26.10
73576;DHT22;61859;49.204;8.140;2022-08-06T14:38:57;36.40;26.50
73576;DHT22;61859;49.204;8.140;2022-08-06T14:41:23;36.30;26.00
73576;DHT22;61859;49.204;8.140;2022-08-06T14:44:09;36.30;26.00
73576;DHT22;61859;49.204;8.140;2022-08-06T14:46:54;36.50;25.40
73576;DHT22;61859;49.204;8.140;2022-08-06T14:49:19;36.30;26.30
73576;DHT22;61859;49.204;8.140;2022-08-06T14:51:45;36.50;25.90
73576;DHT22;61859;49.204;8.140;2022-08-06T14:54:11;36.60;26.20
73576;DHT22;61859;49.204;8.140;2022-08-06T14:56:36;36.70;25.40
73576;DHT22;61859;49.204;8.140;2022-08-06T14:59:02;36.50;26.20
73576;DHT22;61859;49.204;8.140;2022-08-06T15:01:27;36.50;25.80
73576;DHT22;61859;49.204;8.140;2022-08-06T15:03:53;36.70;25.60
73576;DHT22;61859;49.204;8.140;2022-08-06T15:06:18;36.60;26.10
73576;DHT22;61859;49.204;8.140;2022-08-06T15:08:44;36.50;26.90
73576;DHT22;61859;49.204;8.140;2022-08-06T15:11:10;36.10;26.80
73576;DHT22;61859;49.204;8.140;2022-08-06T15:13:35;35.90;26.50
73576;DHT22;61859;49.204;8.140;2022-08-06T15:16:01;36.00;26.70
73576;DHT22;61859;49.204;8.140;2022-08-06T15:18:26;35.90;26.10
73576;DHT22;61859;49.204;8.140;2022-08-06T15:20:52;35.50;26.00
73576;DHT22;61859;49.204;8.140;2022-08-06T15:23:18;35.20;27.50
73576;DHT22;61859;49.204;8.140;2022-08-06T15:25:43;35.00;27.30
73576;DHT22;61859;49.204;8.140;2022-08-06T15:28:09;35.00;27.10
73576;DHT22;61859;49.204;8.140;2022-08-06T15:30:34;34.80;26.70
73576;DHT22;61859;49.204;8.140;2022-08-06T15:33:00;34.30;26.90
73576;DHT22;61859;49.204;8.140;2022-08-06T15:35:26;33.90;27.10
73576;DHT22;61859;49.204;8.140;2022-08-06T15:37:52;33.60;27.30
73576;DHT22;61859;49.204;8.140;2022-08-06T15:40:18;33.20;27.50
73576;DHT22;61859;49.204;8.140;2022-08-06T15:42:44;33.10;27.90
73576;DHT22;61859;49.204;8.140;2022-08-06T15:45:10;32.80;27.50
73576;DHT22;61859;49.204;8.140;2022-08-06T15:47:35;32.50;28.50
73576;DHT22;61859;49.204;8.140;2022-08-06T15:50:01;32.50;28.40
73576;DHT22;61859;49.204;8.140;2022-08-06T15:52:26;32.40;29.10
73576;DHT22;61859;49.204;8.140;2022-08-06T15:54:52;32.20;28.70
73576;DHT22;61859;49.204;8.140;2022-08-06T15:57:17;32.10;28.30
73576;DHT22;61859;49.204;8.140;2022-08-06T15:59:47;31.90;28.40
73576;DHT22;61859;49.204;8.140;2022-08-06T16:02:12;31.80;28.30
73576;DHT22;61859;49.204;8.140;2022-08-06T16:04:38;31.50;28.20
73576;DHT22;61859;49.204;8.140;2022-08-06T16:07:07;31.40;28.70
73576;DHT22;61859;49.204;8.140;2022-08-06T16:09:35;31.60;28.60
73576;DHT22;61859;49.204;8.140;2022-08-06T16:12:01;31.50;28.70
73576;DHT22;61859;49.204;8.140;2022-08-06T16:14:29;31.50;28.30
73576;DHT22;61859;49.204;8.140;2022-08-06T16:16:54;31.30;29.00
73576;DHT22;61859;49.204;8.140;2022-08-06T16:19:20;31.30;29.10
73576;DHT22;61859;49.204;8.140;2022-08-06T16:21:49;31.40;28.40
73576;DHT22;61859;49.204;8.140;2022-08-06T16:24:16;31.30;28.20
73576;DHT22;61859;49.204;8.140;2022-08-06T16:26:41;31.10;28.20
73576;DHT22;61859;49.204;8.140;2022-08-06T16:29:08;30.80;28.10
73576;DHT22;61859;49.204;8.140;2022-08-06T16:31:34;30.60;28.60